Time;durP1;ratioP1;P1;durP2;ratioP2;P2;SDS_P1;SDS_P2;PMS_P1;PMS_P2;Temp;Humidity;BMP_temperature;BMP_pressure;BME280_temperature;BME280_humidity;BME280_pressure;Samples;Min_cycle;Max_cycle;Signal;HPM_P1;HPM_P2
2023/03/11 00:00:58;;;;;;;3.00;1.13;;;;;;;0.81;100.00;100734.84;5130869;27;20067;-35
2023/03/11 00:03:24;;;;;;;7.20;1.70;;;;;;;0.73;100.00;100730.41;5131502;27;20478;-35
2023/03/11 00:05:51;;;;;;;6.72;1.35;;;;;;;0.75;100.00;100731.03;5131148;27;20732;-35
2023/03/11 00:08:19;;;;;;;4.53;1.33;;;;;;;0.73;100.00;100735.72;5130740;27;20019;-35
2023/03/11 00:10:46;;;;;;;3.00;1.13;;;;;;;0.70;100.00;100740.53;5130751;27;20030;-35
2023/03/11 00:13:14;;;;;;;8.02;1.42;;;;;;;0.70;100.00;100744.03;5120353;28;20038;-35
2023/03/11 00:15:40;;;;;;;4.90;1.52;;;;;;;0.69;100.00;100742.38;5117567;27;20106;-35
2023/03/11 00:18:05;;;;;;;;;;;;;;;0.75;100.00;100741.69;5117352;28;20023;-36
2023/03/11 00:20:34;;;;;;;3.08;1.27;;;;;;;0.67;100.00;100748.84;5116836;28;19958;-36
2023/03/11 00:23:00;;;;;;;5.60;1.60;;;;;;;0.67;100.00;100749.69;5116685;28;20539;-36
2023/03/11 00:25:28;;;;;;;4.97;1.27;;;;;;;0.67;100.00;100748.84;5116795;28;20035;-36
2023/03/11 00:27:53;;;;;;;5.47;1.40;;;;;;;0.63;100.00;100753.69;5116700;28;20039;-36
2023/03/11 00:30:20;;;;;;;3.67;1.13;;;;;;;0.62;100.00;100762.66;5117517;28;20035;-35
2023/03/11 00:32:54;;;;;;;4.68;1.35;;;;;;;0.60;100.00;100762.00;5116575;28;20024;-35
2023/03/11 00:35:23;;;;;;;5.82;1.40;;;;;;;0.55;100.00;100764.34;5117444;28;20047;-35
2023/03/11 00:37:53;;;;;;;3.67;1.50;;;;;;;0.50;100.00;100759.53;5116490;28;20027;-35
2023/03/11 00:40:19;;;;;;;4.13;1.40;;;;;;;0.46;100.00;100765.34;5116758;28;20027;-35
2023/03/11 00:42:45;;;;;;;8.73;2.28;;;;;;;0.48;100.00;100780.13;5116703;28;20024;-35
2023/03/11 00:45:13;;;;;;;5.75;1.40;;;;;;;0.45;100.00;100782.31;5117057;28;20052;-35
2023/03/11 00:47:39;;;;;;;5.38;1.30;;;;;;;0.45;100.00;100788.47;5116401;28;20035;-35
2023/03/11 00:50:06;;;;;;;4.05;1.30;;;;;;;0.36;100.00;100776.16;5116041;28;20023;-35
2023/03/11 00:52:31;;;;;;;4.30;1.60;;;;;;;0.27;100.00;100778.97;5116231;28;20027;-35
2023/03/11 00:54:58;;;;;;;5.07;1.33;;;;;;;0.36;100.00;100783.31;5116629;27;20516;-35
2023/03/11 00:57:23;;;;;;;6.47;2.10;;;;;;;0.32;100.00;100780.13;5115862;28;20100;-35
2023/03/11 00:59:48;;;;;;;5.23;1.40;;;;;;;0.34;100.00;100785.28;5116765;28;20057;-35
2023/03/11 01:02:14;;;;;;;4.00;1.57;;;;;;;0.18;100.00;100765.66;5116358;28;20054;-35
2023/03/11 01:04:39;;;;;;;4.47;1.70;;;;;;;0.22;100.00;100782.97;5116668;28;20102;-35
2023/03/11 01:07:05;;;;;;;5.10;1.67;;;;;;;0.31;100.00;100794.44;5116553;28;20057;-35
2023/03/11 01:09:30;;;;;;;4.10;1.37;;;;;;;0.29;100.00;100798.25;5098607;28;20589;-35
2023/03/11 01:11:55;;;;;;;5.07;1.93;;;;;;;0.29;100.00;100809.72;5115649;28;20050;-35
2023/03/11 01:14:21;;;;;;;4.33;1.30;;;;;;;0.23;100.00;100800.56;5115935;28;20153;-35
2023/03/11 01:16:47;;;;;;;;;;;;;;;0.35;100.00;100816.22;5115959;28;20486;-35
2023/03/11 01:19:12;;;;;;;5.17;1.60;;;;;;;0.25;100.00;100811.91;5116617;28;19916;-35
2023/03/11 01:21:38;;;;;;;6.75;2.00;;;;;;;0.24;100.00;100823.53;5115657;28;20281;-36
2023/03/11 01:24:04;;;;;;;5.75;1.45;;;;;;;0.22;100.00;100820.19;5115059;28;20030;-35
2023/03/11 01:26:29;;;;;;;5.57;1.45;;;;;;;0.18;100.00;100810.88;5115879;28;20059;-35
2023/03/11 01:28:54;;;;;;;4.50;1.13;;;;;;;0.23;100.00;100826.34;5115815;28;20062;-35
2023/03/11 01:31:20;;;;;;;3.33;1.20;;;;;;;0.20;100.00;100818.72;5115635;27;20023;-35
2023/03/11 01:33:45;;;;;;;4.70;1.20;;;;;;;0.20;100.00;100824.03;5115486;27;20030;-35
2023/03/11 01:36:10;;;;;;;3.13;1.00;;;;;;;0.20;100.00;100822.19;5115728;28;20024;-35
2023/03/11 01:38:36;;;;;;;5.00;1.00;;;;;;;0.21;100.00;100823.03;5115411;28;20055;-35
2023/03/11 01:41:01;;;;;;;6.47;1.17;;;;;;;0.19;100.00;100817.03;5115605;28;20024;-35
2023/03/11 01:43:37;;;;;;;2.87;1.03;;;;;;;0.20;100.00;100816.88;5115789;28;20791;-35
2023/03/11 01:46:09;;;;;;;4.25;1.00;;;;;;;0.20;100.00;100816.06;5115174;28;20787;-35
2023/03/11 01:48:34;;;;;;;4.20;1.33;;;;;;;0.19;100.00;100828.50;5114730;28;20398;-35
2023/03/11 01:51:00;;;;;;;4.23;1.10;;;;;;;0.19;100.00;100830.31;5115949;28;20023;-35
2023/03/11 01:53:26;;;;;;;3.72;1.67;;;;;;;0.15;100.00;100827.19;5115271;28;20031;-35
2023/03/11 01:55:51;;;;;;;5.65;1.05;;;;;;;0.14;100.00;100828.16;5114734;28;20035;-35
2023/03/11 01:58:22;;;;;;;4.00;0.93;;;;;;;0.07;100.00;100815.69;5114964;28;20020;-36
2023/03/11 02:00:48;;;;;;;4.38;1.65;;;;;;;0.08;100.00;100827.97;5114840;28;20379;-35
2023/03/11 02:03:19;;;;;;;4.07;1.35;;;;;;;-0.01;100.00;100817.31;5115759;28;20055;-35
2023/03/11 02:05:46;;;;;;;6.82;1.33;;;;;;;0.02;100.00;100824.16;5115372;28;20040;-35
2023/03/11 02:08:11;;;;;;;5.90;1.23;;;;;;;-0.02;100.00;100823.63;5114754;28;20027;-35
2023/03/11 02:10:40;;;;;;;3.40;1.03;;;;;;;-0.04;100.00;100824.81;5115272;28;20067;-35
2023/03/11 02:13:06;;;;;;;6.45;1.30;;;;;;;-0.11;100.00;100824.59;5114626;28;20451;-36
2023/03/11 02:15:32;;;;;;;5.75;2.08;;;;;;;-0.13;100.00;100823.13;5114703;28;20024;-36
2023/03/11 02:18:00;;;;;;;6.57;2.35;;;;;;;-0.24;100.00;100823.41;5114377;28;20478;-36
2023/03/11 02:20:41;;;;;;;6.15;2.05;;;;;;;-0.18;100.00;100834.22;5115306;28;20421;-36
2023/03/11 02:23:07;;;;;;;5.55;1.90;;;;;;;-0.19;100.00;100834.41;5114473;28;20019;-36
2023/03/11 02:25:32;;;;;;;3.03;1.33;;;;;;;-0.18;100.00;100834.22;5115099;28;20028;-36
2023/03/11 02:27:59;;;;;;;6.57;1.40;;;;;;;-0.29;100.00;100838.03;5114460;28;20031;-36
2023/03/11 02:30:27;;;;;;;3.42;1.27;;;;;;;-0.24;100.00;100839.34;5114110;28;20035;-36
2023/03/11 02:32:53;;;;;;;5.15;1.40;;;;;;;-0.32;100.00;100832.19;5114708;28;20352;-36
2023/03/11 02:35:19;;;;;;;4.95;1.20;;;;;;;-0.35;100.00;100838.63;5114702;28;20348;-36
2023/03/11 02:37:47;;;;;;;3.78;1.15;;;;;;;-0.31;100.00;100828.53;5114001;28;20464;-36
2023/03/11 02:40:29;;;;;;;5.90;1.90;;;;;;;-0.38;100.00;100833.66;5114625;28;20036;-36
2023/03/11 02:43:00;;;;;;;5.10;1.98;;;;;;;-0.41;100.00;100823.34;5114783;28;20119;-35
2023/03/11 02:45:26;;;;;;;7.50;3.13;;;;;;;-0.62;100.00;100794.53;5115031;28;20027;-36
2023/03/11 02:47:56;;;;;;;6.70;2.47;;;;;;;-0.45;100.00;100835.28;5114722;28;20528;-36
2023/03/11 02:50:24;;;;;;;4.93;2.13;;;;;;;-0.54;100.00;100823.81;5114137;28;20054;-36
2023/03/11 02:52:50;;;;;;;5.78;2.28;;;;;;;-0.47;100.00;100833.78;5113675;28;20035;-36
2023/03/11 02:55:16;;;;;;;;;;;;;;;-0.36;100.00;100830.84;5114559;28;20028;-36
2023/03/11 02:57:43;;;;;;;5.10;2.00;;;;;;;-0.40;100.00;100825.00;5114083;28;20279;-36
2023/03/11 03:00:13;;;;;;;5.60;2.15;;;;;;;-0.40;100.00;100825.00;5113827;28;20028;-36
2023/03/11 03:02:39;;;;;;;6.55;3.13;;;;;;;-0.41;100.00;100827.84;5114275;28;20048;-36
2023/03/11 03:05:05;;;;;;;6.75;2.55;;;;;;;-0.42;100.00;100826.19;5114276;28;20044;-36
2023/03/11 03:07:31;;;;;;;5.53;2.70;;;;;;;-0.49;100.00;100833.94;5113963;28;20058;-36
2023/03/11 03:09:57;;;;;;;6.13;2.47;;;;;;;-0.51;100.00;100825.31;5114233;28;20062;-36
2023/03/11 03:12:22;;;;;;;7.68;3.70;;;;;;;-0.64;100.00;100822.25;5113953;28;20550;-36
2023/03/11 03:14:47;;;;;;;6.87;3.50;;;;;;;-0.57;100.00;100844.53;5114472;28;20452;-36
2023/03/11 03:17:13;;;;;;;8.30;4.10;;;;;;;-0.68;100.00;100839.47;5113879;28;20032;-36
2023/03/11 03:19:38;;;;;;;7.53;3.73;;;;;;;-0.58;100.00;100853.50;5114253;28;20024;-36
2023/03/11 03:22:03;;;;;;;6.00;2.83;;;;;;;-0.60;100.00;100866.91;5113807;28;20125;-36
2023/03/11 03:24:29;;;;;;;5.40;2.10;;;;;;;-0.53;100.00;100862.66;5113856;28;20085;-36
2023/03/11 03:26:54;;;;;;;5.95;1.50;;;;;;;-0.55;100.00;100874.41;5114339;28;20024;-36
2023/03/11 03:29:20;;;;;;;5.43;1.67;;;;;;;-0.47;100.00;100878.97;5114673;28;20031;-36
2023/03/11 03:31:45;;;;;;;3.57;1.60;;;;;;;-0.55;100.00;100875.25;5113730;28;20081;-36
2023/03/11 03:34:10;;;;;;;3.03;1.10;;;;;;;-0.51;100.00;100878.44;5114351;28;20054;-36
2023/03/11 03:36:36;;;;;;;5.73;1.53;;;;;;;-0.50;100.00;100885.41;5114296;28;20026;-36
2023/03/11 03:39:02;;;;;;;4.63;1.43;;;;;;;-0.47;100.00;100895.72;5113394;28;20032;-36
2023/03/11 03:41:28;;;;;;;4.95;1.40;;;;;;;-0.48;100.00;100880.78;5113605;28;20019;-36
2023/03/11 03:43:53;;;;;;;6.67;1.30;;;;;;;-0.43;100.00;100893.59;5113611;28;20027;-36
2023/03/11 03:46:19;;;;;;;4.93;1.47;;;;;;;-0.43;100.00;100889.09;5114209;28;20081;-36
2023/03/11 03:48:45;;;;;;;;;;;;;;;-0.33;100.00;100897.78;5116880;28;20360;-36
2023/03/11 03:51:12;;;;;;;2.80;1.10;;;;;;;-0.43;100.00;100898.91;5118082;28;19958;-36
2023/03/11 03:53:38;;;;;;;4.57;1.30;;;;;;;-0.41;100.00;100896.91;5117930;28;20614;-36
2023/03/11 03:56:04;;;;;;;;;;;;;;;-0.36;100.00;100900.75;5117798;28;20087;-36
2023/03/11 03:58:30;;;;;;;4.55;1.27;;;;;;;-0.52;100.00;100890.06;5116964;28;19911;-36
2023/03/11 04:00:56;;;;;;;4.82;1.10;;;;;;;-0.48;100.00;100907.34;5117505;28;20032;-36
2023/03/11 04:03:21;;;;;;;;;;;;;;;-0.40;100.00;100907.38;5118074;28;20070;-36
2023/03/11 04:05:47;;;;;;;6.80;1.35;;;;;;;-0.43;100.00;100912.19;5117477;28;19915;-36
2023/03/11 04:08:12;;;;;;;4.33;1.53;;;;;;;-0.47;100.00;100910.84;5117173;28;20034;-36
2023/03/11 04:10:37;;;;;;;5.83;1.60;;;;;;;-0.56;100.00;100907.28;5117956;28;20027;-36
2023/03/11 04:13:03;;;;;;;4.53;1.63;;;;;;;-0.60;100.00;100911.25;5116810;28;20107;-36
2023/03/11 04:15:28;;;;;;;4.43;1.53;;;;;;;-0.57;100.00;100913.59;5116743;28;20080;-36
2023/03/11 04:17:53;;;;;;;7.63;1.40;;;;;;;-0.60;100.00;100919.22;5117207;28;20084;-36
2023/03/11 04:20:19;;;;;;;5.10;1.60;;;;;;;-0.59;100.00;100918.22;5116966;28;20471;-36
2023/03/11 04:22:44;;;;;;;4.10;1.33;;;;;;;-0.66;100.00;100917.19;5117030;28;20430;-36
2023/03/11 04:25:10;;;;;;;8.13;1.33;;;;;;;-0.63;100.00;100924.84;5116580;28;20030;-36
2023/03/11 04:27:37;;;;;;;3.63;1.43;;;;;;;-0.64;100.00;100923.16;5116769;28;20119;-36
2023/03/11 04:30:04;;;;;;;6.10;1.50;;;;;;;-0.87;100.00;100904.28;5117031;28;20072;-36
2023/03/11 04:32:29;;;;;;;2.45;1.00;;;;;;;-0.66;100.00;100931.28;5116650;28;20054;-36
2023/03/11 04:34:54;;;;;;;4.87;1.20;;;;;;;-0.68;100.00;100927.97;5116938;27;20023;-36
2023/03/11 04:37:20;;;;;;;3.83;1.30;;;;;;;-0.60;100.00;100932.50;5116664;28;20076;-36
2023/03/11 04:39:45;;;;;;;4.27;1.30;;;;;;;-0.82;100.00;100910.78;5116595;28;20028;-36
2023/03/11 04:42:12;;;;;;;3.87;1.27;;;;;;;-0.76;100.00;100911.97;5117014;28;20031;-36
2023/03/11 04:44:38;;;;;;;6.72;1.40;;;;;;;-0.77;100.00;100926.25;5116459;28;20059;-36
2023/03/11 04:47:04;;;;;;;4.55;1.20;;;;;;;-0.67;100.00;100920.84;5116959;28;20062;-36
2023/03/11 04:49:29;;;;;;;2.20;0.97;;;;;;;-0.77;100.00;100912.97;5117523;28;20535;-36
2023/03/11 04:51:54;;;;;;;4.60;1.17;;;;;;;-0.73;100.00;100924.97;5116293;28;20356;-36
2023/03/11 04:54:20;;;;;;;3.87;1.20;;;;;;;-0.88;100.00;100900.78;5116597;27;20050;-36
2023/03/11 04:56:45;;;;;;;3.47;1.10;;;;;;;-0.78;100.00;100924.59;5116525;28;20026;-36
2023/03/11 04:59:10;;;;;;;4.00;1.10;;;;;;;-0.83;100.00;100914.44;5116444;27;20494;-36
2023/03/11 05:01:36;;;;;;;2.80;1.27;;;;;;;-0.76;100.00;100937.69;5114816;28;20531;-36
2023/03/11 05:04:01;;;;;;;2.53;1.10;;;;;;;-0.83;100.00;100926.84;5117061;28;20047;-36
2023/03/11 05:06:26;;;;;;;3.07;1.23;;;;;;;-0.84;100.00;100925.19;5116625;28;20016;-36
2023/03/11 05:08:52;;;;;;;2.93;1.20;;;;;;;-0.96;100.00;100927.28;5115970;28;20114;-36
2023/03/11 05:11:17;;;;;;;2.53;1.30;;;;;;;-0.89;100.00;100932.78;5116513;28;20019;-36
2023/03/11 05:13:42;;;;;;;4.73;1.60;;;;;;;-0.97;100.00;100933.56;5115920;28;20039;-36
2023/03/11 05:16:08;;;;;;;3.80;1.27;;;;;;;-0.95;100.00;100936.06;5115945;28;20015;-36
2023/03/11 05:18:34;;;;;;;3.78;1.55;;;;;;;-1.17;100.00;100905.50;5115454;28;20063;-36
2023/03/11 05:20:59;;;;;;;4.77;1.43;;;;;;;-1.01;100.00;100940.16;5115349;28;20034;-36
2023/03/11 05:23:24;;;;;;;4.93;1.23;;;;;;;-1.11;100.00;100937.59;5116076;28;20027;-36
2023/03/11 05:25:50;;;;;;;3.40;1.30;;;;;;;-0.99;100.00;100948.81;5115601;28;20460;-36
2023/03/11 05:28:15;;;;;;;2.43;0.97;;;;;;;-1.07;100.00;100946.09;5114220;28;20490;-36
2023/03/11 05:30:40;;;;;;;6.37;1.60;;;;;;;-1.04;100.00;100948.44;5115199;28;20407;-36
2023/03/11 05:33:06;;;;;;;5.13;1.20;;;;;;;-1.04;100.00;100953.72;5115417;27;20038;-36
2023/03/11 05:35:31;;;;;;;3.73;1.13;;;;;;;-1.05;100.00;100952.91;5115220;28;20115;-36
2023/03/11 05:37:56;;;;;;;6.90;1.90;;;;;;;-1.08;100.00;100941.75;5115451;28;20020;-36
2023/03/11 05:40:22;;;;;;;2.57;1.20;;;;;;;-1.08;100.00;100957.69;5115928;28;20082;-36
2023/03/11 05:42:47;;;;;;;4.37;1.37;;;;;;;-1.04;100.00;100967.84;5115199;28;20054;-36
2023/03/11 05:45:13;;;;;;;3.93;1.50;;;;;;;-1.11;100.00;100972.09;5115268;28;20032;-36
2023/03/11 05:47:41;;;;;;;3.80;1.63;;;;;;;-1.13;100.00;100970.56;5115738;28;20062;-36
2023/03/11 05:50:07;;;;;;;3.25;1.73;;;;;;;-1.12;100.00;100977.56;5115458;28;20030;-36
2023/03/11 05:52:32;;;;;;;3.00;1.40;;;;;;;-1.16;100.00;100979.69;5115032;28;20098;-36
2023/03/11 05:54:58;;;;;;;5.03;1.48;;;;;;;-1.16;100.00;100981.50;5115674;28;20027;-36
2023/03/11 05:57:23;;;;;;;5.13;1.38;;;;;;;-1.18;100.00;100973.69;5115619;28;20434;-36
2023/03/11 05:59:49;;;;;;;5.53;1.45;;;;;;;-1.14;100.00;100987.47;5115272;28;20027;-36
2023/03/11 06:02:15;;;;;;;3.60;1.57;;;;;;;-1.16;100.00;100989.47;5114367;28;20087;-36
2023/03/11 06:04:41;;;;;;;2.88;1.27;;;;;;;-1.16;100.00;100986.81;5115185;28;20020;-36
2023/03/11 06:07:07;;;;;;;6.43;1.60;;;;;;;-1.14;100.00;100984.84;5114577;28;20452;-36
2023/03/11 06:09:35;;;;;;;4.15;1.40;;;;;;;-1.16;100.00;100986.81;5115147;28;20035;-35
2023/03/11 06:12:01;;;;;;;5.07;1.50;;;;;;;-1.21;100.00;100987.25;5114209;28;20027;-36
2023/03/11 06:14:30;;;;;;;2.72;1.50;;;;;;;-1.20;100.00;100996.06;5114700;28;20513;-36
2023/03/11 06:16:56;;;;;;;2.85;1.50;;;;;;;-1.17;100.00;100993.09;5114627;28;20024;-36
2023/03/11 06:19:21;;;;;;;3.33;1.35;;;;;;;-1.12;100.00;100999.63;5114424;28;20395;-36
2023/03/11 06:21:46;;;;;;;3.50;1.30;;;;;;;-1.20;100.00;100980.97;5114495;28;20110;-36
2023/03/11 06:24:12;;;;;;;3.07;1.40;;;;;;;-1.18;100.00;100991.41;5114665;28;20455;-36
2023/03/11 06:26:37;;;;;;;3.30;1.10;;;;;;;-1.12;100.00;101010.25;5114842;28;20451;-36
2023/03/11 06:29:03;;;;;;;4.03;1.50;;;;;;;-1.15;100.00;101023.81;5113231;28;20126;-36
2023/03/11 06:31:28;;;;;;;5.07;1.90;;;;;;;-1.17;100.00;101011.66;5114233;28;20023;-36
2023/03/11 06:33:58;;;;;;;3.10;1.27;;;;;;;-1.27;100.00;101006.41;5114190;28;20023;-36
2023/03/11 06:36:25;;;;;;;3.88;1.25;;;;;;;-1.16;100.00;101008.03;5114302;28;20028;-36
2023/03/11 06:38:51;;;;;;;4.60;1.63;;;;;;;-1.22;100.00;101000.66;5114063;28;20115;-36
2023/03/11 06:41:17;;;;;;;6.28;1.67;;;;;;;-1.17;100.00;101003.69;5114773;28;20024;-36
2023/03/11 06:43:42;;;;;;;5.68;1.95;;;;;;;-1.00;100.00;101018.81;5114224;28;20028;-36
2023/03/11 06:46:10;;;;;;;3.67;1.40;;;;;;;-0.99;100.00;101020.47;5114299;28;20121;-36
2023/03/11 06:48:35;;;;;;;4.53;1.50;;;;;;;-0.90;100.00;101040.81;5114120;28;20277;-36
2023/03/11 06:51:01;;;;;;;6.40;1.60;;;;;;;-0.84;100.00;101037.53;5114832;28;20028;-36
2023/03/11 06:53:27;;;;;;;4.83;1.90;;;;;;;-0.81;100.00;101039.91;5114403;28;20066;-36
2023/03/11 06:56:03;;;;;;;3.42;1.52;;;;;;;-0.78;100.00;101046.75;5114676;28;20080;-36
2023/03/11 06:58:29;;;;;;;3.33;1.67;;;;;;;-0.64;100.00;101055.97;5114076;28;20023;-36
2023/03/11 07:00:58;;;;;;;6.55;1.75;;;;;;;-0.60;100.00;101057.34;5113961;28;20027;-36
2023/03/11 07:03:23;;;;;;;3.88;1.50;;;;;;;-0.54;100.00;101054.91;5113785;28;20040;-36
2023/03/11 07:05:50;;;;;;;3.87;1.90;;;;;;;-0.39;100.00;101071.13;5114861;28;20038;-36
2023/03/11 07:08:16;;;;;;;2.70;1.42;;;;;;;-0.34;100.00;101068.84;5113894;28;20030;-36
2023/03/11 07:10:41;;;;;;;4.50;1.20;;;;;;;-0.37;100.00;101077.13;5114329;28;20028;-36
2023/03/11 07:13:06;;;;;;;3.33;1.43;;;;;;;-0.29;100.00;101082.50;5113982;28;20108;-36
2023/03/11 07:15:32;;;;;;;3.57;1.30;;;;;;;-0.12;100.00;101072.00;5114252;28;20254;-36
2023/03/11 07:17:57;;;;;;;5.82;1.75;;;;;;;-0.16;100.00;101074.13;5113862;28;20034;-36
2023/03/11 07:20:23;;;;;;;5.87;1.47;;;;;;;-0.03;100.00;101082.53;5114759;28;20039;-36
2023/03/11 07:22:48;;;;;;;5.10;3.00;;;;;;;-0.04;100.00;101067.56;5114697;28;20453;-36
2023/03/11 07:25:14;;;;;;;5.30;2.60;;;;;;;0.01;100.00;101079.56;5118857;27;20058;-36
2023/03/11 07:27:39;;;;;;;4.07;2.23;;;;;;;0.12;100.00;101084.59;5117689;28;20110;-36
2023/03/11 07:30:05;;;;;;;8.37;2.37;;;;;;;0.13;100.00;101081.78;5118299;28;20310;-36
2023/03/11 07:32:30;;;;;;;4.25;2.20;;;;;;;0.21;100.00;101081.84;5118048;28;20495;-36
2023/03/11 07:34:55;;;;;;;1.90;1.20;;;;;;;0.43;100.00;101082.28;5118158;28;20106;-36
2023/03/11 07:37:21;;;;;;;3.87;1.63;;;;;;;0.41;100.00;101084.28;5117842;28;20019;-36
2023/03/11 07:39:46;;;;;;;7.63;2.20;;;;;;;0.49;100.00;101097.63;5118035;28;20532;-36
2023/03/11 07:42:11;;;;;;;5.47;2.03;;;;;;;0.51;100.00;101096.47;5117932;28;20417;-36
2023/03/11 07:44:37;;;;;;;4.10;1.90;;;;;;;0.55;100.00;101099.63;5117684;28;20051;-36
2023/03/11 07:47:04;;;;;;;2.60;1.60;;;;;;;0.67;100.00;101098.34;5117540;28;20032;-36
2023/03/11 07:49:29;;;;;;;4.80;2.30;;;;;;;0.74;100.00;101098.56;5117982;27;20080;-36
2023/03/11 07:51:55;;;;;;;6.20;1.90;;;;;;;0.80;100.00;101105.06;5117467;28;20035;-36
2023/03/11 07:54:20;;;;;;;4.10;2.30;;;;;;;0.83;100.00;101094.06;5117474;27;20264;-36
2023/03/11 07:56:46;;;;;;;6.97;2.60;;;;;;;0.84;100.00;101115.22;5117071;28;20024;-36
2023/03/11 07:59:11;;;;;;;5.63;2.67;;;;;;;0.84;100.00;101106.41;5117366;28;20020;-36
2023/03/11 08:01:39;;;;;;;3.87;1.77;;;;;;;0.90;100.00;101119.91;5117237;28;20028;-36
2023/03/11 08:04:07;;;;;;;7.05;2.25;;;;;;;0.96;100.00;101126.41;5117935;28;20072;-36
2023/03/11 08:06:35;;;;;;;3.80;2.30;;;;;;;1.03;100.00;101122.13;5117193;28;20028;-36
2023/03/11 08:09:02;;;;;;;4.07;2.67;;;;;;;1.13;100.00;101119.31;5117249;28;20035;-36
2023/03/11 08:11:30;;;;;;;6.40;2.80;;;;;;;1.15;100.00;101120.81;5117751;28;20152;-36
2023/03/11 08:13:56;;;;;;;4.53;2.20;;;;;;;1.20;100.00;101128.31;5117369;28;20032;-36
2023/03/11 08:16:22;;;;;;;2.80;1.50;;;;;;;1.26;100.00;101132.97;5117593;28;20365;-36
2023/03/11 08:18:49;;;;;;;5.95;1.88;;;;;;;1.28;100.00;101131.84;5117235;28;20085;-37
2023/03/11 08:21:18;;;;;;;4.88;1.50;;;;;;;1.36;100.00;101133.66;5117167;28;20031;-36
2023/03/11 08:23:46;;;;;;;5.30;1.98;;;;;;;1.42;100.00;101132.22;5116849;28;20035;-36
2023/03/11 08:26:14;;;;;;;3.97;1.45;;;;;;;1.55;100.00;101135.19;5117042;28;20061;-35
2023/03/11 08:28:39;;;;;;;4.10;1.55;;;;;;;1.59;100.00;101131.22;5116761;28;20377;-36
2023/03/11 08:31:15;;;;;;;4.60;1.60;;;;;;;1.57;100.00;101119.91;5116858;28;20032;-36
2023/03/11 08:33:42;;;;;;;5.00;1.93;;;;;;;1.69;100.00;101129.22;5116203;28;20027;-36
2023/03/11 08:36:07;;;;;;;4.32;1.60;;;;;;;1.75;100.00;101133.88;5117215;28;20364;-36
2023/03/11 08:38:32;;;;;;;2.97;1.30;;;;;;;1.71;100.00;101121.06;5116602;28;20035;-36
2023/03/11 08:40:58;;;;;;;5.73;1.53;;;;;;;1.79;100.00;101129.06;5116523;28;20051;-36
2023/03/11 08:43:23;;;;;;;3.77;1.53;;;;;;;1.86;100.00;101139.91;5116533;28;20483;-36
2023/03/11 08:45:49;;;;;;;4.67;2.10;;;;;;;1.82;100.00;101149.22;5116793;28;20046;-36
2023/03/11 08:48:14;;;;;;;5.60;2.27;;;;;;;1.85;100.00;101132.88;5116407;28;20463;-36
2023/03/11 08:50:41;;;;;;;3.53;1.70;;;;;;;1.97;100.00;101150.22;5116116;28;20253;-36
2023/03/11 08:53:07;;;;;;;2.42;1.23;;;;;;;1.97;100.00;101132.38;5116293;28;20048;-36
2023/03/11 08:55:33;;;;;;;4.15;1.13;;;;;;;2.15;100.00;101156.22;5116610;28;20031;-35
2023/03/11 08:57:58;;;;;;;4.53;1.23;;;;;;;2.24;99.35;101154.34;5116211;27;20383;-36
2023/03/11 09:00:23;;;;;;;2.70;1.20;;;;;;;2.32;96.68;101157.03;5116765;28;20257;-36
2023/03/11 09:02:49;;;;;;;4.50;1.20;;;;;;;2.25;94.80;101145.38;5116037;28;20043;-35
2023/03/11 09:05:14;;;;;;;1.93;0.90;;;;;;;2.49;97.05;101169.34;5115865;28;20277;-36
2023/03/11 09:07:40;;;;;;;8.47;1.53;;;;;;;2.43;87.41;101163.84;5116316;28;20031;-36
2023/03/11 09:10:06;;;;;;;3.58;1.67;;;;;;;2.50;93.26;101160.34;5116567;27;20031;-36
2023/03/11 09:12:31;;;;;;;4.07;1.08;;;;;;;2.65;94.32;101157.78;5116486;28;20525;-36
2023/03/11 09:14:57;;;;;;;4.78;1.13;;;;;;;2.72;94.09;101164.09;5115993;28;20039;-36
2023/03/11 09:17:22;;;;;;;2.83;1.10;;;;;;;2.84;89.66;101160.06;5115882;28;20463;-36
2023/03/11 09:19:47;;;;;;;5.07;1.27;;;;;;;2.99;90.16;101167.34;5116179;28;20024;-36
2023/03/11 09:22:13;;;;;;;2.60;1.00;;;;;;;3.04;88.77;101168.50;5115898;28;20039;-36
2023/03/11 09:24:38;;;;;;;4.50;1.05;;;;;;;3.08;89.98;101169.81;5115790;28;20052;-36
2023/03/11 09:27:04;;;;;;;3.30;0.60;;;;;;;3.01;82.65;101173.34;5115623;28;20054;-36
2023/03/11 09:29:30;;;;;;;49.33;8.37;;;;;;;3.15;87.93;101182.47;5115610;28;20035;-36
2023/03/11 09:31:56;;;;;;;4.95;1.67;;;;;;;3.23;86.47;101182.44;5116353;28;20136;-36
2023/03/11 09:34:21;;;;;;;4.25;1.35;;;;;;;3.35;89.09;101173.84;5115519;28;20031;-36
2023/03/11 09:36:46;;;;;;;2.87;1.30;;;;;;;3.39;90.55;101165.47;5115134;28;20027;-36
2023/03/11 09:39:12;;;;;;;4.43;1.20;;;;;;;3.42;83.72;101175.84;5115710;27;20023;-36
2023/03/11 09:41:46;;;;;;;2.90;1.10;;;;;;;3.40;79.80;101184.00;5115579;28;20058;-36
2023/03/11 09:44:35;;;;;;;3.03;0.73;;;;;;;3.53;88.50;101191.47;5115284;28;20028;-36
2023/03/11 09:47:25;;;;;;;3.67;0.80;;;;;;;3.56;83.23;101191.09;5114940;28;20479;-36
2023/03/11 09:50:10;;;;;;;3.40;1.00;;;;;;;3.52;83.52;101185.28;5115523;28;20076;-36
2023/03/11 09:52:43;;;;;;;3.10;1.00;;;;;;;3.52;83.95;101192.47;5116023;27;20375;-36
2023/03/11 09:55:40;;;;;;;2.85;0.70;;;;;;;3.38;84.03;101175.34;5115121;28;20035;-36
2023/03/11 09:58:24;;;;;;;1.98;0.95;;;;;;;3.47;86.12;101179.63;5114737;27;20429;-36
2023/03/11 10:00:51;;;;;;;2.13;0.60;;;;;;;3.47;85.99;101179.63;5114982;28;20020;-36
2023/03/11 10:03:34;;;;;;;1.75;0.63;;;;;;;3.50;79.97;101184.63;5115576;28;20130;-36
2023/03/11 10:06:20;;;;;;;2.95;1.27;;;;;;;3.47;82.71;101186.84;5115131;28;20034;-36
2023/03/11 10:09:05;;;;;;;2.25;0.68;;;;;;;3.41;82.24;101183.00;5114191;28;20040;-36
2023/03/11 10:11:44;;;;;;;3.67;0.75;;;;;;;3.37;83.23;101189.72;5115645;28;20415;-36
2023/03/11 10:14:23;;;;;;;4.60;0.82;;;;;;;3.36;83.42;101182.69;5115299;28;20390;-36
2023/03/11 10:17:12;;;;;;;2.97;0.77;;;;;;;3.24;86.80;101174.25;5115013;28;20032;-36
2023/03/11 10:20:03;;;;;;;2.35;0.75;;;;;;;3.27;84.28;101189.94;5114373;28;20065;-36
2023/03/11 10:23:06;;;;;;;2.97;0.70;;;;;;;3.39;84.81;101187.69;5114801;28;20032;-36
2023/03/11 10:26:07;;;;;;;2.78;0.70;;;;;;;3.47;83.78;101190.34;5114257;28;20023;-36
2023/03/11 10:28:39;;;;;;;2.58;0.77;;;;;;;3.50;81.20;101195.31;5115114;28;20111;-36
2023/03/11 10:31:29;;;;;;;3.85;0.98;;;;;;;3.49;85.16;101184.81;5114227;28;20132;-35
2023/03/11 10:34:09;;;;;;;3.67;0.93;;;;;;;3.65;83.50;101205.25;5114102;28;20032;-36
2023/03/11 10:36:45;;;;;;;2.55;0.70;;;;;;;3.70;82.00;101208.22;5114425;28;20050;-35
2023/03/11 10:39:10;;;;;;;4.68;2.10;;;;;;;3.73;82.29;101198.03;5114684;28;20034;-35
2023/03/11 10:41:45;;;;;;;4.47;1.30;;;;;;;3.91;84.17;101191.56;5114553;28;20444;-35
2023/03/11 10:44:28;;;;;;;3.88;1.20;;;;;;;4.01;83.80;101201.00;5113339;28;20019;-35
2023/03/11 10:46:53;;;;;;;2.10;0.80;;;;;;;4.02;81.76;101199.97;5115070;28;20028;-36
2023/03/11 10:49:27;;;;;;;7.20;2.30;;;;;;;4.09;80.61;101200.09;5114822;28;20031;-36
2023/03/11 10:51:54;;;;;;;1.85;0.70;;;;;;;4.11;81.12;101198.91;5114734;28;20031;-36
2023/03/11 10:54:36;;;;;;;3.35;1.02;;;;;;;4.20;80.93;101202.34;5114101;28;20031;-36
2023/03/11 10:57:04;;;;;;;5.18;0.90;;;;;;;4.29;80.81;101197.75;5113990;28;20034;-36
2023/03/11 10:59:45;;;;;;;4.10;1.35;;;;;;;4.45;77.55;101202.13;5114654;28;20035;-36
2023/03/11 11:02:28;;;;;;;1.92;0.70;;;;;;;4.55;78.40;101200.03;5114544;28;20164;-36
2023/03/11 11:05:23;;;;;;;1.75;0.60;;;;;;;4.69;79.10;101183.13;5114831;28;20031;-36
2023/03/11 11:07:53;;;;;;;1.67;0.60;;;;;;;4.80;74.69;101189.88;5113548;28;20472;-36
2023/03/11 11:10:25;;;;;;;2.70;0.73;;;;;;;4.83;77.79;101190.34;5113800;28;20053;-36
2023/03/11 11:13:06;;;;;;;3.17;1.27;;;;;;;4.79;78.67;101177.50;5114571;28;20027;-35
2023/03/11 11:15:34;;;;;;;2.97;0.93;;;;;;;4.80;77.32;101196.06;5114482;28;20061;-35
2023/03/11 11:18:05;;;;;;;5.03;1.00;;;;;;;4.78;75.57;101189.22;5114185;28;20027;-36
2023/03/11 11:20:32;;;;;;;3.10;0.80;;;;;;;4.78;74.61;101190.06;5113558;28;20525;-36
2023/03/11 11:23:00;;;;;;;5.53;0.73;;;;;;;4.77;72.30;101200.94;5113451;28;20055;-35
2023/03/11 11:25:37;;;;;;;4.90;1.00;;;;;;;4.79;75.73;101188.22;5114405;28;20031;-35
2023/03/11 11:28:13;;;;;;;3.42;1.23;;;;;;;4.66;68.68;101207.59;5113754;28;20035;-35